Vronskiy — C4AY2 — position and weather

sailwx.info

Track history (hours):
 
Tides and Currents Weather Stations Pressure Air Temp Water Temp Dewpoint Dewpoint Depression Visibility Wind Speed Wind Dir Waves Ship Positions

Vronskiy

Last reported at 2015-Apr-18 11:31 UTC. Time now 2015-Apr-18 13:09 UTC.
Position N 36°08' W 005°26'.

Length 131 m; draft 5.2 m.

Type: Passenger vessel. MMSI: 210030000.

Date/timePositionNaut miles runAvg speedWind from/ knotsBaromVisibWave heightAir tempDewpointWater temp
2015-Apr-18 11:31N 36°08' W 005°26'10 9.6
2015-Apr-18 10:26N 35°57' W 005°28'1 0.4
2015-Apr-18 07:33N 35°59' W 005°28'9 1.3
2015-Apr-18 00:06N 36°08' W 005°26'6 9.2
2015-Apr-17 23:28N 36°02' W 005°24'8 2.6
2015-Apr-17 20:28N 35°56' W 005°30'1314.3
2015-Apr-17 19:33N 36°09' W 005°25'9 3.5
2015-Apr-17 17:06N 36°00' W 005°25'6 2.2
2015-Apr-17 14:25N 35°57' W 005°31'1112.8
2015-Apr-17 13:33N 36°06' W 005°24'3 1.9
2015-Apr-17 12:03N 36°08' W 005°26'0 0.0
2015-Apr-17 11:26N 36°08' W 005°26'9 9.0
2015-Apr-17 10:24N 35°59' W 005°26'4 1.2
2015-Apr-17 07:33N 35°57' W 005°29'12 7.8
2015-Apr-17 06:05N 36°08' W 005°26'0 0.0
2015-Apr-17 01:33N 36°08' W 005°26'1211.1
2015-Apr-17 00:30N 35°56' W 005°28'2 0.5
2015-Apr-16 21:17N 35°56' W 005°30'1115.2
2015-Apr-16 20:34N 36°06' W 005°24'3 1.2
2015-Apr-16 18:14N 36°08' W 005°26'9 9.1
2015-Apr-16 17:14N 35°59' W 005°25'3 1.1
2015-Apr-16 14:32N 35°58' W 005°29'11 3.5
2015-Apr-16 11:20N 36°09' W 005°26'1013.2
2015-Apr-16 10:33N 35°59' W 005°25'3 0.9
2015-Apr-16 07:32N 35°59' W 005°28'9 1.5
2015-Apr-16 01:06N 36°08' W 005°26'8 9.8
2015-Apr-16 00:19N 36°00' W 005°25'6 1.8
2015-Apr-15 21:07N 35°56' W 005°30'814.7
2015-Apr-15 20:33N 36°03' W 005°24'3 0.9
2015-Apr-15 17:18N 36°00' W 005°25'2 0.4
2015-Apr-15 13:33N 36°02' W 005°25'6 2.5
2015-Apr-15 11:10N 36°08' W 005°26'10 9.8
2015-Apr-15 10:07N 35°58' W 005°27'2 0.6
2015-Apr-15 07:29N 35°58' W 005°29'5 0.6
2015-Apr-15 00:07N 35°54' W 005°31'713.3
2015-Apr-14 23:33N 35°60' W 005°25'1 0.3
2015-Apr-14 19:29N 35°58' W 005°26'4 1.1
2015-Apr-14 16:05N 35°57' W 005°30'914.1
2015-Apr-14 15:25N 36°05' W 005°24'3 0.4
2015-Apr-14 07:33N 36°02' W 005°25'7 3.2
2015-Apr-14 05:19N 36°09' W 005°26'1 0.1
2015-Apr-14 01:18N 36°08' W 005°26'0 0.2
2015-Apr-14 00:23N 36°08' W 005°26'9 9.8
2015-Apr-13 23:27N 35°59' W 005°26'4 1.3
2015-Apr-13 20:19N 35°56' W 005°30'1114.7
2015-Apr-13 19:34N 36°06' W 005°24'3 1.4
2015-Apr-13 17:27N 36°09' W 005°26'1213.1
2015-Apr-13 16:30N 35°57' W 005°28'4 1.3
2015-Apr-13 13:33N 36°00' W 005°27'8 3.2
2015-Apr-13 11:12N 36°08' W 005°26'10 9.9
2015-Apr-13 10:13N 35°58' W 005°26'4 1.2
2015-Apr-13 07:23N 35°56' W 005°30'1214.6
2015-Apr-13 06:33N 36°07' W 005°24'2 0.4
2015-Apr-13 02:05N 36°08' W 005°26'7 9.3
2015-Apr-13 01:17N 36°01' W 005°25'4 1.5
2015-Apr-12 22:33N 35°58' W 005°29'11 2.7
2015-Apr-12 18:28N 36°09' W 005°26'1212.4
2015-Apr-12 17:32N 35°57' W 005°27'4 1.2
2015-Apr-12 14:33N 36°01' W 005°26'7 2.2
2015-Apr-12 11:23N 36°08' W 005°26'10 9.8
2015-Apr-12 10:21N 35°58' W 005°26'3 1.1
2015-Apr-12 07:28N 35°56' W 005°30'1313.3
2015-Apr-12 06:30N 36°09' W 005°26'1 0.4
2015-Apr-12 03:22N 36°08' W 005°26'9 9.7
2015-Apr-12 02:29N 35°59' W 005°25'6 1.3
2015-Apr-11 22:12N 35°56' W 005°31'1015.0
2015-Apr-11 21:31N 36°05' W 005°24'4 1.4
2015-Apr-11 18:27N 36°09' W 005°26'1213.3
2015-Apr-11 17:33N 35°57' W 005°27'3 1.0
2015-Apr-11 14:33N 35°60' W 005°26'0 0.1
2015-Apr-11 07:33N 36°00' W 005°26'8 1.2
2015-Apr-11 00:33N 36°08' W 005°26'1111.3
2015-Apr-10 23:33N 35°57' W 005°27'5 2.5
2015-Apr-10 21:28N 35°53' W 005°31'1414.6
2015-Apr-10 20:31N 36°05' W 005°24'4 2.0
2015-Apr-10 18:34N 36°09' W 005°26'1312.2
2015-Apr-10 17:30N 35°57' W 005°30'4 1.5
2015-Apr-10 14:32N 36°00' W 005°26'3 0.4
2015-Apr-10 07:32N 35°58' W 005°29'10 2.0
2015-Apr-10 02:29N 36°08' W 005°26'9 9.4
2015-Apr-10 01:33N 35°59' W 005°25'2 0.4
2015-Apr-09 21:33N 36°00' W 005°27'8 2.3
2015-Apr-09 18:10N 36°08' W 005°26'810.4
2015-Apr-09 17:25N 36°00' W 005°25'5 1.4
2015-Apr-09 13:33N 35°57' W 005°30'1110.0
2015-Apr-09 12:26N 36°08' W 005°26'0 0.1
2015-Apr-09 10:31N 36°08' W 005°26'8 7.8
2015-Apr-09 09:32N 36°00' W 005°25'6 0.5
2015-Apr-08 22:21N 35°56' W 005°30'1012.1
2015-Apr-08 21:33N 36°04' W 005°23'4 1.4
2015-Apr-08 18:32N 36°08' W 005°26'9 9.3
2015-Apr-08 17:31N 35°59' W 005°25'  
Track history (hours):
 
Tides and Currents Weather Stations Pressure Air Temp Water Temp Dewpoint Dewpoint Depression Visibility Wind Speed Wind Dir Waves Ship Positions

Vronskiy

Last reported at 2015-Apr-18 11:31 UTC. Time now 2015-Apr-18 13:09 UTC.
Position N 36°08' W 005°26'.

Length 131 m; draft 5.2 m.

Type: Passenger vessel. MMSI: 210030000.

Date/timePositionNaut miles runAvg speedWind from/ knotsBaromVisibWave heightAir tempDewpointWater temp
2015-Apr-18 11:31N 36°08' W 005°26'10 9.6
2015-Apr-18 10:26N 35°57' W 005°28'1 0.4
2015-Apr-18 07:33N 35°59' W 005°28'9 1.3
2015-Apr-18 00:06N 36°08' W 005°26'6 9.2
2015-Apr-17 23:28N 36°02' W 005°24'8 2.6
2015-Apr-17 20:28N 35°56' W 005°30'1314.3
2015-Apr-17 19:33N 36°09' W 005°25'9 3.5
2015-Apr-17 17:06N 36°00' W 005°25'6 2.2
2015-Apr-17 14:25N 35°57' W 005°31'1112.8
2015-Apr-17 13:33N 36°06' W 005°24'3 1.9
2015-Apr-17 12:03N 36°08' W 005°26'0 0.0
2015-Apr-17 11:26N 36°08' W 005°26'9 9.0
2015-Apr-17 10:24N 35°59' W 005°26'4 1.2
2015-Apr-17 07:33N 35°57' W 005°29'12 7.8
2015-Apr-17 06:05N 36°08' W 005°26'0 0.0
2015-Apr-17 01:33N 36°08' W 005°26'1211.1
2015-Apr-17 00:30N 35°56' W 005°28'2 0.5
2015-Apr-16 21:17N 35°56' W 005°30'1115.2
2015-Apr-16 20:34N 36°06' W 005°24'3 1.2
2015-Apr-16 18:14N 36°08' W 005°26'9 9.1
2015-Apr-16 17:14N 35°59' W 005°25'3 1.1
2015-Apr-16 14:32N 35°58' W 005°29'11 3.5
2015-Apr-16 11:20N 36°09' W 005°26'1013.2
2015-Apr-16 10:33N 35°59' W 005°25'3 0.9
2015-Apr-16 07:32N 35°59' W 005°28'9 1.5
2015-Apr-16 01:06N 36°08' W 005°26'8 9.8
2015-Apr-16 00:19N 36°00' W 005°25'6 1.8
2015-Apr-15 21:07N 35°56' W 005°30'814.7
2015-Apr-15 20:33N 36°03' W 005°24'3 0.9
2015-Apr-15 17:18N 36°00' W 005°25'2 0.4
2015-Apr-15 13:33N 36°02' W 005°25'6 2.5
2015-Apr-15 11:10N 36°08' W 005°26'10 9.8
2015-Apr-15 10:07N 35°58' W 005°27'2 0.6
2015-Apr-15 07:29N 35°58' W 005°29'5 0.6
2015-Apr-15 00:07N 35°54' W 005°31'713.3
2015-Apr-14 23:33N 35°60' W 005°25'1 0.3
2015-Apr-14 19:29N 35°58' W 005°26'4 1.1
2015-Apr-14 16:05N 35°57' W 005°30'914.1
2015-Apr-14 15:25N 36°05' W 005°24'3 0.4
2015-Apr-14 07:33N 36°02' W 005°25'7 3.2
2015-Apr-14 05:19N 36°09' W 005°26'1 0.1
2015-Apr-14 01:18N 36°08' W 005°26'0 0.2
2015-Apr-14 00:23N 36°08' W 005°26'9 9.8
2015-Apr-13 23:27N 35°59' W 005°26'4 1.3
2015-Apr-13 20:19N 35°56' W 005°30'1114.7
2015-Apr-13 19:34N 36°06' W 005°24'3 1.4
2015-Apr-13 17:27N 36°09' W 005°26'1213.1
2015-Apr-13 16:30N 35°57' W 005°28'4 1.3
2015-Apr-13 13:33N 36°00' W 005°27'8 3.2
2015-Apr-13 11:12N 36°08' W 005°26'10 9.9
2015-Apr-13 10:13N 35°58' W 005°26'4 1.2
2015-Apr-13 07:23N 35°56' W 005°30'1214.6
2015-Apr-13 06:33N 36°07' W 005°24'2 0.4
2015-Apr-13 02:05N 36°08' W 005°26'7 9.3
2015-Apr-13 01:17N 36°01' W 005°25'4 1.5
2015-Apr-12 22:33N 35°58' W 005°29'11 2.7
2015-Apr-12 18:28N 36°09' W 005°26'1212.4
2015-Apr-12 17:32N 35°57' W 005°27'4 1.2
2015-Apr-12 14:33N 36°01' W 005°26'7 2.2
2015-Apr-12 11:23N 36°08' W 005°26'10 9.8
2015-Apr-12 10:21N 35°58' W 005°26'3 1.1
2015-Apr-12 07:28N 35°56' W 005°30'1313.3
2015-Apr-12 06:30N 36°09' W 005°26'1 0.4
2015-Apr-12 03:22N 36°08' W 005°26'9 9.7
2015-Apr-12 02:29N 35°59' W 005°25'6 1.3
2015-Apr-11 22:12N 35°56' W 005°31'1015.0
2015-Apr-11 21:31N 36°05' W 005°24'4 1.4
2015-Apr-11 18:27N 36°09' W 005°26'1213.3
2015-Apr-11 17:33N 35°57' W 005°27'3 1.0
2015-Apr-11 14:33N 35°60' W 005°26'0 0.1
2015-Apr-11 07:33N 36°00' W 005°26'8 1.2
2015-Apr-11 00:33N 36°08' W 005°26'1111.3
2015-Apr-10 23:33N 35°57' W 005°27'5 2.5
2015-Apr-10 21:28N 35°53' W 005°31'1414.6
2015-Apr-10 20:31N 36°05' W 005°24'4 2.0
2015-Apr-10 18:34N 36°09' W 005°26'1312.2
2015-Apr-10 17:30N 35°57' W 005°30'4 1.5
2015-Apr-10 14:32N 36°00' W 005°26'3 0.4
2015-Apr-10 07:32N 35°58' W 005°29'10 2.0
2015-Apr-10 02:29N 36°08' W 005°26'9 9.4
2015-Apr-10 01:33N 35°59' W 005°25'2 0.4
2015-Apr-09 21:33N 36°00' W 005°27'8 2.3
2015-Apr-09 18:10N 36°08' W 005°26'810.4
2015-Apr-09 17:25N 36°00' W 005°25'5 1.4
2015-Apr-09 13:33N 35°57' W 005°30'1110.0
2015-Apr-09 12:26N 36°08' W 005°26'0 0.1
2015-Apr-09 10:31N 36°08' W 005°26'8 7.8
2015-Apr-09 09:32N 36°00' W 005°25'6 0.5
2015-Apr-08 22:21N 35°56' W 005°30'1012.1
2015-Apr-08 21:33N 36°04' W 005°23'4 1.4
2015-Apr-08 18:32N 36°08' W 005°26'9 9.3
2015-Apr-08 17:31N 35°59' W 005°25'  

Dump ship's entire track history